Station Historical Data
Daily Summary for November 3, 2017 Units:  English    Metric   Both
« Previous Day
Next Day »
Daily Weekly Monthly Yearly Custom
  High: Low: Average:
Temperature: 63.8 °F 37.0 °F 50.7 °F
Dew Point: 56.4 °F 31.4 °F 44.2 °F
Humidity: 92% 60% 79%
Wind Speed: 10.0mph 0.0mph 2.4mph
Wind Gust: 16.0mph - -
Wind- - WNW
Pressure: 30.36 in 29.91 in -
Precipitation: 0.00 in    
Historical Graphs
 
 
Tabular Data for November 3, 2017
Time Temperature Dew Point Pressure Wind Wind Speed Wind Gust Humidity Rainfall Rate (Hourly)
00:04 63.8 °F 54.6 °F 29.93 in SW 2.0 mph 14.0 mph 72% 0.00 in
00:09 63.7 °F 54.5 °F 29.93 in WSW 5.0 mph 11.0 mph 72% 0.00 in
00:14 63.8 °F 54.6 °F 29.93 in SSE 5.0 mph 9.0 mph 72% 0.00 in
00:19 63.8 °F 54.6 °F 29.93 in SW 5.0 mph 10.0 mph 72% 0.00 in
00:24 63.8 °F 54.6 °F 29.92 in SSW 5.0 mph 10.0 mph 72% 0.00 in
00:29 63.8 °F 54.6 °F 29.92 in SSW 5.0 mph 12.0 mph 72% 0.00 in
00:34 63.7 °F 54.5 °F 29.92 in SSW 5.0 mph 12.0 mph 72% 0.00 in
00:39 63.8 °F 54.6 °F 29.92 in SW 5.0 mph 12.0 mph 72% 0.00 in
00:44 63.8 °F 54.6 °F 29.92 in SW 5.0 mph 12.0 mph 72% 0.00 in
00:49 63.8 °F 54.6 °F 29.92 in SW 3.0 mph 11.0 mph 72% 0.00 in
00:54 63.8 °F 54.6 °F 29.92 in SW 4.0 mph 11.0 mph 72% 0.00 in
00:59 63.7 °F 54.5 °F 29.91 in WSW 5.0 mph 10.0 mph 72% 0.00 in
01:04 63.8 °F 54.6 °F 29.91 in SW 4.0 mph 10.0 mph 72% 0.00 in
01:09 63.7 °F 54.5 °F 29.91 in South 4.0 mph 11.0 mph 72% 0.00 in
01:14 63.7 °F 54.5 °F 29.91 in South 3.0 mph 9.0 mph 72% 0.00 in
01:19 63.8 °F 54.6 °F 29.91 in SSW 2.0 mph 10.0 mph 72% 0.00 in
01:24 63.6 °F 55.2 °F 29.91 in SSW 3.0 mph 10.0 mph 74% 0.00 in
01:29 63.3 °F 55.2 °F 29.91 in SW 3.0 mph 6.0 mph 75% 0.01 in
01:34 62.8 °F 55.5 °F 29.92 in SW 4.0 mph 10.0 mph 77% 0.03 in
01:39 62.3 °F 55.7 °F 29.92 in SW 5.0 mph 12.0 mph 79% 0.05 in
01:44 61.7 °F 55.8 °F 29.92 in SW 6.0 mph 15.0 mph 81% 0.08 in
01:49 61.2 °F 56.0 °F 29.93 in SW 6.0 mph 12.0 mph 83% 0.10 in
01:54 60.8 °F 55.9 °F 29.93 in WSW 4.0 mph 9.0 mph 84% 0.12 in
01:59 60.5 °F 56.0 °F 29.93 in WSW 5.0 mph 13.0 mph 85% 0.14 in
02:04 60.2 °F 56.0 °F 29.93 in WSW 4.0 mph 13.0 mph 86% 0.17 in
02:09 60.0 °F 56.1 °F 29.92 in WSW 4.0 mph 11.0 mph 87% 0.19 in
02:14 59.9 °F 56.0 °F 29.93 in SW 5.0 mph 9.0 mph 87% 0.21 in
02:19 59.8 °F 56.2 °F 29.92 in WSW 4.0 mph 10.0 mph 88% 0.23 in
02:24 59.7 °F 56.1 °F 29.93 in WSW 5.0 mph 11.0 mph 88% 0.25 in
02:29 59.6 °F 56.4 °F 29.92 in WSW 4.0 mph 11.0 mph 89% 0.26 in
02:34 59.4 °F 56.2 °F 29.93 in WSW 5.0 mph 11.0 mph 89% 0.26 in
02:39 59.3 °F 56.1 °F 29.93 in WSW 5.0 mph 11.0 mph 89% 0.25 in
02:44 59.2 °F 56.0 °F 29.93 in SW 9.0 mph 10.0 mph 89% 0.24 in
02:49 58.9 °F 55.7 °F 29.93 in SW 1.0 mph 10.0 mph 89% 0.23 in
02:54 58.7 °F 55.8 °F 29.93 in SSW 2.0 mph 8.0 mph 90% 0.22 in
02:59 58.6 °F 55.7 °F 29.93 in WSW 3.0 mph 6.0 mph 90% 0.20 in
03:04 58.5 °F 55.6 °F 29.93 in WSW 3.0 mph 6.0 mph 90% 0.18 in
03:09 58.3 °F 55.4 °F 29.94 in WNW 2.0 mph 11.0 mph 90% 0.17 in
03:14 57.8 °F 54.9 °F 29.93 in NW 1.0 mph 4.0 mph 90% 0.16 in
03:19 57.4 °F 54.5 °F 29.93 in Calm   1.0 mph 90% 0.15 in
03:24 57.2 °F 54.3 °F 29.93 in Calm     90% 0.13 in
03:29 56.8 °F 53.9 °F 29.93 in Calm   3.0 mph 90% 0.11 in
03:34 56.5 °F 53.6 °F 29.93 in Calm   3.0 mph 90% 0.09 in
03:39 56.4 °F 53.5 °F 29.93 in Calm     90% 0.09 in
03:44 56.2 °F 53.6 °F 29.92 in Calm     91% 0.07 in
03:49 56.1 °F 53.5 °F 29.92 in Calm     91% 0.07 in
03:54 56.0 °F 53.4 °F 29.92 in Calm     91% 0.06 in
03:59 56.1 °F 53.5 °F 29.92 in Calm     91% 0.06 in
04:04 56.0 °F 53.4 °F 29.92 in Calm     91% 0.05 in
04:09 56.0 °F 53.4 °F 29.92 in Calm     91% 0.04 in
04:14 55.9 °F 53.3 °F 29.93 in Calm   2.0 mph 91% 0.03 in
04:19 55.9 °F 53.3 °F 29.94 in Calm   2.0 mph 91% 0.02 in
04:24 55.9 °F 53.3 °F 29.95 in NW 3.0 mph 5.0 mph 91% 0.02 in
04:29 55.6 °F 53.0 °F 29.96 in WNW 4.0 mph 5.0 mph 91% 0.02 in
04:34 55.3 °F 52.7 °F 29.96 in NW 1.0 mph 7.0 mph 91% 0.03 in
04:39 54.9 °F 52.3 °F 29.96 in North 2.0 mph 6.0 mph 91% 0.02 in
04:44 54.6 °F 52.0 °F 29.95 in NNW 2.0 mph 6.0 mph 91% 0.02 in
04:49 54.4 °F 51.8 °F 29.96 in North 2.0 mph 6.0 mph 91% 0.01 in
04:54 54.2 °F 51.6 °F 29.96 in NNW 1.0 mph 4.0 mph 91% 0.01 in
04:59 54.1 °F 51.5 °F 29.95 in NNW 1.0 mph 3.0 mph 91% 0.02 in
05:04 54.1 °F 51.5 °F 29.95 in Calm   5.0 mph 91% 0.02 in
05:09 54.0 °F 51.4 °F 29.95 in NNW 2.0 mph 8.0 mph 91% 0.02 in
05:14 53.9 °F 51.3 °F 29.96 in North 2.0 mph 7.0 mph 91% 0.02 in
05:19 53.8 °F 51.5 °F 29.96 in NNW 2.0 mph 7.0 mph 92% 0.02 in
05:24 53.6 °F 51.0 °F 29.97 in NNW 1.0 mph 8.0 mph 91% 0.02 in
05:29 53.6 °F 51.0 °F 29.98 in North 3.0 mph 7.0 mph 91% 0.02 in
05:34 53.4 °F 50.8 °F 29.98 in NNE 1.0 mph 7.0 mph 91% 0.01 in
05:39 53.2 °F 50.6 °F 29.97 in North 2.0 mph 8.0 mph 91% 0.02 in
05:44 53.0 °F 50.4 °F 29.98 in NNW 1.0 mph 7.0 mph 91% 0.03 in
05:54 52.6 °F 50.0 °F 29.98 in NNW 1.0 mph 3.0 mph 91% 0.06 in
05:59 52.5 °F 50.2 °F 29.98 in Calm   3.0 mph 92% 0.06 in
06:04 52.5 °F 50.2 °F 29.99 in Calm   2.0 mph 92% 0.06 in
06:09 52.5 °F 50.2 °F 29.99 in Calm     92% 0.06 in
06:14 52.4 °F 50.1 °F 29.99 in Calm     92% 0.06 in
06:19 52.4 °F 50.1 °F 29.99 in Calm   3.0 mph 92% 0.06 in
06:24 52.5 °F 50.2 °F 29.99 in Calm   5.0 mph 92% 0.06 in
06:29 52.4 °F 50.1 °F 30.00 in Calm   3.0 mph 92% 0.07 in
06:34 52.2 °F 49.7 °F 30.00 in NNW 2.0 mph 6.0 mph 91% 0.07 in
06:39 52.0 °F 49.7 °F 30.00 in Calm   9.0 mph 92% 0.06 in
06:44 51.8 °F 49.5 °F 30.00 in Calm   5.0 mph 92% 0.05 in
06:49 51.7 °F 49.5 °F 30.00 in Calm   2.0 mph 92% 0.03 in
06:54 51.8 °F 49.5 °F 30.00 in WNW 2.0 mph 6.0 mph 92% 0.02 in
06:59 51.7 °F 49.5 °F 30.01 in NNW 2.0 mph 6.0 mph 92% 0.01 in
07:04 51.6 °F 49.4 °F 30.01 in NNW 2.0 mph 8.0 mph 92% 0.01 in
07:09 51.4 °F 49.2 °F 30.01 in NNW 2.0 mph 8.0 mph 92% 0.01 in
07:14 51.2 °F 49.0 °F 30.02 in North 2.0 mph 7.0 mph 92% 0.01 in
07:19 51.1 °F 48.6 °F 30.02 in Calm   6.0 mph 91% 0.01 in
07:24 51.0 °F 48.5 °F 30.02 in NNW 3.0 mph 6.0 mph 91% 0.01 in
07:29 50.9 °F 48.7 °F 30.02 in North 2.0 mph 6.0 mph 92% 0.00 in
07:34 50.9 °F 48.7 °F 30.02 in North 2.0 mph 8.0 mph 92% 0.01 in
07:39 50.8 °F 48.6 °F 30.03 in North 2.0 mph 8.0 mph 92% 0.01 in
07:44 50.6 °F 48.1 °F 30.03 in North 4.0 mph 10.0 mph 91% 0.02 in
07:49 50.2 °F 47.7 °F 30.03 in NNW 3.0 mph 5.0 mph 91% 0.03 in
07:54 49.9 °F 47.4 °F 30.03 in Calm   8.0 mph 91% 0.04 in
07:59 49.7 °F 47.2 °F 30.04 in NNW 2.0 mph 4.0 mph 91% 0.04 in
08:04 49.5 °F 47.0 °F 30.04 in NNW 2.0 mph 9.0 mph 91% 0.04 in
08:09 49.2 °F 46.7 °F 30.06 in NNW 4.0 mph 9.0 mph 91% 0.04 in
08:14 49.1 °F 46.6 °F 30.06 in NNW 3.0 mph 8.0 mph 91% 0.04 in
08:19 49.1 °F 46.6 °F 30.06 in NW 1.0 mph 7.0 mph 91% 0.05 in
08:24 49.1 °F 46.6 °F 30.06 in North 1.0 mph 4.0 mph 91% 0.05 in
08:29 49.1 °F 46.6 °F 30.06 in NNW 3.0 mph 6.0 mph 91% 0.05 in
08:34 49.0 °F 46.5 °F 30.06 in NNW 2.0 mph 6.0 mph 91% 0.04 in
08:39 49.0 °F 46.5 °F 30.07 in NNW 2.0 mph 6.0 mph 91% 0.04 in
08:44 49.0 °F 46.5 °F 30.07 in North 2.0 mph 4.0 mph 91% 0.03 in
08:54 49.0 °F 46.5 °F 30.08 in Calm   4.0 mph 91% 0.01 in
08:59 49.0 °F 46.5 °F 30.08 in Calm   1.0 mph 91% 0.01 in
09:04 49.0 °F 46.5 °F 30.08 in West 2.0 mph 5.0 mph 91% 0.01 in
09:09 49.0 °F 46.5 °F 30.09 in NW 1.0 mph 5.0 mph 91% 0.01 in
09:14 49.0 °F 46.5 °F 30.09 in NW 1.0 mph 5.0 mph 91% 0.01 in
09:19 48.9 °F 46.4 °F 30.09 in NW 1.0 mph 5.0 mph 91% 0.00 in
09:24 48.8 °F 46.3 °F 30.10 in NW 1.0 mph 5.0 mph 91% 0.00 in
09:29 48.7 °F 46.2 °F 30.10 in Calm   6.0 mph 91% 0.00 in
09:34 48.6 °F 46.1 °F 30.09 in NW 2.0 mph 6.0 mph 91% 0.00 in
09:39 48.7 °F 46.2 °F 30.10 in NW 1.0 mph 5.0 mph 91% 0.00 in
09:44 48.6 °F 46.1 °F 30.10 in NW 2.0 mph 5.0 mph 91% 0.00 in
09:49 48.7 °F 46.2 °F 30.10 in NNW 3.0 mph 4.0 mph 91% 0.00 in
09:54 48.9 °F 46.4 °F 30.10 in NW 1.0 mph 6.0 mph 91% 0.00 in
09:59 49.0 °F 46.5 °F 30.11 in Calm   5.0 mph 91% 0.00 in
10:04 49.4 °F 46.9 °F 30.11 in NW 6.0 mph 6.0 mph 91% 0.00 in
10:09 49.3 °F 46.5 °F 30.11 in NW 5.0 mph 7.0 mph 90% 0.00 in
10:14 49.3 °F 46.5 °F 30.12 in NW 3.0 mph 5.0 mph 90% 0.00 in
10:19 49.4 °F 46.6 °F 30.12 in NW 2.0 mph 5.0 mph 90% 0.00 in
10:24 49.7 °F 46.9 °F 30.12 in NW 2.0 mph 5.0 mph 90% 0.00 in
10:29 49.7 °F 46.6 °F 30.12 in NW 2.0 mph 7.0 mph 89% 0.00 in
10:34 49.7 °F 46.6 °F 30.12 in NW 3.0 mph 8.0 mph 89% 0.00 in
10:39 49.7 °F 46.3 °F 30.12 in NW 4.0 mph 8.0 mph 88% 0.00 in
10:44 50.0 °F 46.3 °F 30.12 in NW 2.0 mph 8.0 mph 87% 0.00 in
10:49 50.1 °F 46.1 °F 30.12 in WNW 1.0 mph 11.0 mph 86% 0.00 in
10:54 50.7 °F 46.4 °F 30.13 in NW 4.0 mph 11.0 mph 85% 0.00 in
10:59 51.0 °F 46.3 °F 30.13 in WNW 3.0 mph 8.0 mph 84% 0.00 in
11:04 50.9 °F 45.9 °F 30.13 in NW 3.0 mph 7.0 mph 83% 0.00 in
11:09 51.6 °F 46.6 °F 30.13 in NW 3.0 mph 7.0 mph 83% 0.00 in
11:14 51.4 °F 46.1 °F 30.13 in West 6.0 mph 8.0 mph 82% 0.00 in
11:19 51.2 °F 45.6 °F 30.14 in NW 3.0 mph 8.0 mph 81% 0.00 in
11:24 51.1 °F 45.5 °F 30.14 in NW 3.0 mph 8.0 mph 81% 0.00 in
11:29 51.0 °F 45.4 °F 30.14 in NNW 2.0 mph 7.0 mph 81% 0.00 in
11:34 52.1 °F 46.1 °F 30.14 in NW 3.0 mph 8.0 mph 80% 0.00 in
11:39 52.5 °F 45.8 °F 30.14 in WNW 8.0 mph 9.0 mph 78% 0.00 in
11:44 51.8 °F 44.5 °F 30.15 in WNW 3.0 mph 11.0 mph 76% 0.00 in
11:49 51.4 °F 44.4 °F 30.15 in NW 7.0 mph 12.0 mph 77% 0.00 in
11:54 51.0 °F 44.0 °F 30.15 in WNW 1.0 mph 10.0 mph 77% 0.00 in
11:59 51.7 °F 44.7 °F 30.15 in NW 3.0 mph 10.0 mph 77% 0.00 in
12:04 51.8 °F 44.5 °F 30.15 in NW 4.0 mph 10.0 mph 76% 0.00 in
12:09 51.6 °F 43.9 °F 30.16 in NW 5.0 mph 12.0 mph 75% 0.00 in
12:14 51.6 °F 44.3 °F 30.16 in NW 7.0 mph 9.0 mph 76% 0.00 in
12:19 51.8 °F 44.1 °F 30.16 in NW 5.0 mph 8.0 mph 75% 0.00 in
12:24 51.5 °F 43.5 °F 30.16 in NW 4.0 mph 10.0 mph 74% 0.00 in
12:29 51.2 °F 43.9 °F 30.16 in NW 5.0 mph 11.0 mph 76% 0.00 in
12:34 50.9 °F 43.6 °F 30.16 in NW 5.0 mph 11.0 mph 76% 0.00 in
12:39 51.0 °F 43.0 °F 30.16 in NW 3.0 mph 11.0 mph 74% 0.00 in
12:44 51.9 °F 43.9 °F 30.16 in WNW 3.0 mph 7.0 mph 74% 0.00 in
12:49 52.2 °F 43.8 °F 30.16 in WNW 4.0 mph 7.0 mph 73% 0.00 in
12:54 52.8 °F 45.1 °F 30.16 in WNW 7.0 mph 10.0 mph 75% 0.00 in
12:59 53.8 °F 45.0 °F 30.16 in WNW 4.0 mph 8.0 mph 72% 0.00 in
13:04 53.1 °F 43.9 °F 30.16 in WNW 4.0 mph 9.0 mph 71% 0.00 in
13:09 52.6 °F 42.7 °F 30.16 in NW 5.0 mph 13.0 mph 69% 0.00 in
13:14 52.2 °F 43.1 °F 30.16 in NW 5.0 mph 13.0 mph 71% 0.00 in
13:19 51.6 °F 42.5 °F 30.16 in NW 3.0 mph 10.0 mph 71% 0.00 in
13:24 51.7 °F 43.3 °F 30.16 in WNW 3.0 mph 7.0 mph 73% 0.00 in
13:29 51.5 °F 42.8 °F 30.16 in NNW 5.0 mph 7.0 mph 72% 0.00 in
13:34 51.7 °F 43.3 °F 30.16 in West 5.0 mph 6.0 mph 73% 0.00 in
13:39 53.9 °F 44.7 °F 30.17 in WNW 4.0 mph 10.0 mph 71% 0.00 in
13:44 53.2 °F 43.3 °F 30.17 in WNW 4.0 mph 10.0 mph 69% 0.00 in
13:49 52.5 °F 41.9 °F 30.17 in NW 4.0 mph 9.0 mph 67% 0.00 in
13:54 52.4 °F 42.5 °F 30.17 in West 10.0 mph 11.0 mph 69% 0.00 in
13:59 52.4 °F 42.5 °F 30.17 in NNW 4.0 mph 11.0 mph 69% 0.00 in
14:04 52.4 °F 42.9 °F 30.17 in NW 7.0 mph 11.0 mph 70% 0.00 in
14:09 52.1 °F 43.3 °F 30.18 in NW 4.0 mph 12.0 mph 72% 0.00 in
14:14 51.6 °F 42.5 °F 30.18 in NW 6.0 mph 12.0 mph 71% 0.00 in
14:19 51.4 °F 42.3 °F 30.18 in NW 5.0 mph 12.0 mph 71% 0.00 in
14:24 52.8 °F 43.7 °F 30.18 in NW 4.0 mph 12.0 mph 71% 0.00 in
14:29 52.9 °F 42.6 °F 30.19 in NW 3.0 mph 12.0 mph 68% 0.00 in
14:34 52.5 °F 42.2 °F 30.19 in West 8.0 mph 12.0 mph 68% 0.00 in
14:39 52.8 °F 42.1 °F 30.19 in WNW 7.0 mph 16.0 mph 67% 0.00 in
14:44 52.8 °F 41.4 °F 30.19 in WNW 6.0 mph 16.0 mph 65% 0.00 in
14:49 52.2 °F 41.6 °F 30.19 in NW 5.0 mph 12.0 mph 67% 0.00 in
14:54 52.0 °F 41.0 °F 30.19 in NW 5.0 mph 11.0 mph 66% 0.00 in
14:59 51.6 °F 40.2 °F 30.20 in WNW 4.0 mph 13.0 mph 65% 0.00 in
15:04 52.3 °F 40.1 °F 30.20 in West 4.0 mph 11.0 mph 63% 0.00 in
15:09 51.9 °F 39.7 °F 30.20 in WNW 6.0 mph 12.0 mph 63% 0.00 in
15:14 51.5 °F 39.7 °F 30.21 in NNW 5.0 mph 8.0 mph 64% 0.00 in
15:19 51.2 °F 39.4 °F 30.21 in NW 5.0 mph 13.0 mph 64% 0.00 in
15:24 51.0 °F 38.4 °F 30.21 in NW 5.0 mph 13.0 mph 62% 0.00 in
15:29 52.0 °F 39.8 °F 30.22 in NW 5.0 mph 14.0 mph 63% 0.00 in
15:34 53.2 °F 40.1 °F 30.22 in NW 5.0 mph 14.0 mph 61% 0.00 in
15:39 53.5 °F 39.9 °F 30.22 in North 4.0 mph 11.0 mph 60% 0.00 in
15:44 51.8 °F 39.6 °F 30.23 in NNW 3.0 mph 9.0 mph 63% 0.00 in
15:49 51.0 °F 38.8 °F 30.23 in NW 4.0 mph 9.0 mph 63% 0.00 in
15:54 50.5 °F 38.4 °F 30.23 in NW 4.0 mph 11.0 mph 63% 0.00 in
15:59 50.3 °F 38.2 °F 30.23 in NW 5.0 mph 12.0 mph 63% 0.00 in
16:04 51.3 °F 39.1 °F 30.23 in NW 2.0 mph 10.0 mph 63% 0.00 in
16:09 51.5 °F 38.5 °F 30.23 in NW 4.0 mph 11.0 mph 61% 0.00 in
16:14 51.2 °F 37.8 °F 30.24 in North 4.0 mph 10.0 mph 60% 0.00 in
16:19 51.4 °F 38.8 °F 30.24 in West 5.0 mph 7.0 mph 62% 0.00 in
16:24 51.2 °F 38.2 °F 30.24 in WNW 4.0 mph 8.0 mph 61% 0.00 in
16:29 50.3 °F 37.4 °F 30.24 in NW 3.0 mph 8.0 mph 61% 0.00 in
16:34 49.7 °F 37.2 °F 30.25 in NNW 3.0 mph 7.0 mph 62% 0.00 in
16:39 49.6 °F 37.5 °F 30.25 in NW 3.0 mph 6.0 mph 63% 0.00 in
16:44 49.9 °F 37.8 °F 30.25 in NNW 4.0 mph 7.0 mph 63% 0.00 in
16:49 49.9 °F 37.4 °F 30.25 in NW 5.0 mph 9.0 mph 62% 0.00 in
16:54 49.7 °F 37.6 °F 30.25 in NW 1.0 mph 6.0 mph 63% 0.00 in
16:59 49.9 °F 37.8 °F 30.25 in NNW 3.0 mph 6.0 mph 63% 0.00 in
17:04 50.2 °F 37.7 °F 30.25 in NW 3.0 mph 9.0 mph 62% 0.00 in
17:09 50.3 °F 37.8 °F 30.26 in NW 3.0 mph 9.0 mph 62% 0.00 in
17:14 50.3 °F 37.4 °F 30.26 in NW 3.0 mph 9.0 mph 61% 0.00 in
17:19 50.0 °F 37.1 °F 30.26 in NW 8.0 mph 11.0 mph 61% 0.00 in
17:24 49.4 °F 36.1 °F 30.26 in NW 2.0 mph 10.0 mph 60% 0.00 in
17:29 49.0 °F 36.1 °F 30.26 in WSW 3.0 mph 8.0 mph 61% 0.00 in
17:34 48.7 °F 36.3 °F 30.26 in NW 4.0 mph 8.0 mph 62% 0.00 in
17:39 48.5 °F 36.1 °F 30.27 in NNW 4.0 mph 9.0 mph 62% 0.00 in
17:44 48.1 °F 36.1 °F 30.26 in West 2.0 mph 5.0 mph 63% 0.00 in
17:49 47.9 °F 36.3 °F 30.27 in NW 3.0 mph 9.0 mph 64% 0.00 in
17:54 47.8 °F 36.2 °F 30.27 in NW 2.0 mph 7.0 mph 64% 0.00 in
17:59 47.3 °F 36.1 °F 30.27 in NNW 2.0 mph 3.0 mph 65% 0.00 in
18:04 47.0 °F 36.2 °F 30.27 in NNW 2.0 mph 5.0 mph 66% 0.00 in
18:09 46.9 °F 36.5 °F 30.28 in NNW 2.0 mph 9.0 mph 67% 0.00 in
18:14 46.6 °F 36.6 °F 30.28 in NNW 2.0 mph 9.0 mph 68% 0.00 in
18:19 46.3 °F 36.7 °F 30.29 in NNW 2.0 mph 7.0 mph 69% 0.00 in
18:24 46.1 °F 36.5 °F 30.28 in North 2.0 mph 5.0 mph 69% 0.00 in
18:29 45.8 °F 36.6 °F 30.29 in NNW 1.0 mph 5.0 mph 70% 0.00 in
18:34 45.5 °F 36.3 °F 30.29 in NNW 3.0 mph 5.0 mph 70% 0.00 in
18:39 45.4 °F 36.2 °F 30.30 in NNW 1.0 mph 5.0 mph 70% 0.00 in
18:44 45.1 °F 35.9 °F 30.30 in Calm   4.0 mph 70% 0.00 in
18:49 44.7 °F 35.9 °F 30.30 in NW 3.0 mph 3.0 mph 71% 0.00 in
18:54 44.4 °F 35.6 °F 30.30 in NW 2.0 mph 4.0 mph 71% 0.00 in
18:59 44.2 °F 35.4 °F 30.31 in NNW 1.0 mph 4.0 mph 71% 0.00 in
19:04 44.1 °F 35.3 °F 30.31 in Calm   4.0 mph 71% 0.00 in
19:09 43.8 °F 35.0 °F 30.31 in Calm   3.0 mph 71% 0.00 in
19:14 43.5 °F 35.1 °F 30.31 in Calm   4.0 mph 72% 0.00 in
19:19 43.3 °F 34.9 °F 30.32 in Calm   4.0 mph 72% 0.00 in
19:24 43.2 °F 35.1 °F 30.32 in Calm   3.0 mph 73% 0.00 in
19:29 43.0 °F 34.9 °F 30.31 in Calm   2.0 mph 73% 0.00 in
19:34 42.8 °F 34.7 °F 30.31 in Calm   2.0 mph 73% 0.00 in
19:39 42.5 °F 34.5 °F 30.32 in Calm     73% 0.00 in
19:44 42.0 °F 34.3 °F 30.32 in Calm     74% 0.00 in
19:49 41.5 °F 34.5 °F 30.32 in Calm     76% 0.00 in
19:59 40.7 °F 34.0 °F 30.32 in Calm     77% 0.00 in
20:04 40.4 °F 34.1 °F 30.32 in Calm     78% 0.00 in
20:09 40.2 °F 34.2 °F 30.32 in Calm     79% 0.00 in
20:14 40.0 °F 34.3 °F 30.32 in Calm     80% 0.00 in
20:19 39.9 °F 34.2 °F 30.32 in Calm     80% 0.00 in
20:24 40.1 °F 34.4 °F 30.33 in Calm     80% 0.00 in
20:29 40.6 °F 34.6 °F 30.33 in Calm   3.0 mph 79% 0.00 in
20:34 41.0 °F 34.7 °F 30.33 in NW 1.0 mph 5.0 mph 78% 0.00 in
20:39 41.2 °F 34.5 °F 30.33 in NW 1.0 mph 5.0 mph 77% 0.00 in
20:44 41.3 °F 34.3 °F 30.33 in Calm   4.0 mph 76% 0.00 in
20:49 41.6 °F 34.6 °F 30.33 in NNW 1.0 mph 4.0 mph 76% 0.00 in
20:54 41.9 °F 34.9 °F 30.33 in Calm   4.0 mph 76% 0.00 in
20:59 42.2 °F 35.2 °F 30.34 in Calm   4.0 mph 76% 0.00 in
21:04 42.5 °F 35.5 °F 30.34 in NW 1.0 mph 3.0 mph 76% 0.00 in
21:09 42.7 °F 35.7 °F 30.33 in Calm   2.0 mph 76% 0.00 in
21:14 42.8 °F 35.4 °F 30.34 in Calm     75% 0.00 in
21:19 42.9 °F 35.5 °F 30.34 in NNW 2.0 mph 4.0 mph 75% 0.00 in
21:24 43.0 °F 35.6 °F 30.34 in Calm   4.0 mph 75% 0.00 in
21:29 43.0 °F 35.6 °F 30.34 in Calm   3.0 mph 75% 0.00 in
21:34 43.0 °F 36.0 °F 30.34 in Calm   2.0 mph 76% 0.00 in
21:39 42.8 °F 35.8 °F 30.35 in Calm   1.0 mph 76% 0.00 in
21:44 42.6 °F 35.6 °F 30.35 in Calm   2.0 mph 76% 0.00 in
21:49 42.5 °F 35.5 °F 30.35 in NNW 1.0 mph 4.0 mph 76% 0.00 in
21:54 42.5 °F 35.5 °F 30.35 in NNW 1.0 mph 4.0 mph 76% 0.00 in
21:59 42.4 °F 35.4 °F 30.35 in Calm     76% 0.00 in
22:04 42.1 °F 35.1 °F 30.35 in Calm     76% 0.00 in
22:09 41.8 °F 35.1 °F 30.35 in Calm     77% 0.00 in
22:14 41.5 °F 34.8 °F 30.35 in Calm     77% 0.00 in
22:19 41.5 °F 35.2 °F 30.36 in Calm     78% 0.00 in
22:24 41.3 °F 35.0 °F 30.36 in Calm     78% 0.00 in
22:29 41.4 °F 35.1 °F 30.35 in Calm     78% 0.00 in
22:34 41.5 °F 34.8 °F 30.35 in Calm     77% 0.00 in
22:39 41.4 °F 34.7 °F 30.35 in Calm   2.0 mph 77% 0.00 in
22:44 41.1 °F 34.4 °F 30.35 in Calm   2.0 mph 77% 0.00 in
22:49 41.0 °F 34.0 °F 30.35 in Calm   2.0 mph 76% 0.00 in
22:54 40.7 °F 34.0 °F 30.36 in Calm   1.0 mph 77% 0.00 in
22:59 40.5 °F 33.9 °F 30.36 in Calm     77% 0.00 in
23:04 40.3 °F 33.3 °F 30.35 in Calm     76% 0.00 in
23:09 39.9 °F 33.3 °F 30.36 in Calm     77% 0.00 in
23:24 39.1 °F 32.5 °F 30.35 in Calm     77% 0.00 in
23:29 38.8 °F 32.5 °F 30.35 in Calm     78% 0.00 in
23:34 38.7 °F 32.4 °F 30.35 in Calm     78% 0.00 in
23:39 38.6 °F 32.3 °F 30.35 in Calm     78% 0.00 in
23:44 38.2 °F 31.9 °F 30.35 in Calm     78% 0.00 in
23:49 37.9 °F 32.0 °F 30.35 in Calm     79% 0.00 in
23:59 37.0 °F 31.4 °F 30.35 in Calm     80% 0.00 in
Buffalo, New York, USA
Compliments of Weather Underground - 2.5 mb